KMTC/MTC METAR and TAF weather

Enter ICAO airport designator
Station Type Date Time Source
KMTC METAR 2021/03/07 08:56 UTC NOAA

KMTC 070856Z AUTO 35006KT 10SM CLR M08/M09 A3032 RMK AO2 SLP280 T10821092 52015 $


Station Type Date Time Source
KMTC Decoded METAR 2021/03/07 08:56 UTC NOAA

Selfridge Air National Guard Base, MI, United States (KMTC) 42-37N 082-50W
Mar 07, 2021 - 03:56 AM EST / 2021.03.07 0856 UTC
Wind: from the N (350 degrees) at 7 MPH (6 KT):0
Visibility: 10 mile(s):0
Sky conditions: clear
Temperature: 17.2 F (-8.2 C)
Windchill: 6 F (-14 C):1
Dew Point: 15.4 F (-9.2 C)
Relative Humidity: 92%
Pressure (altimeter): 30.32 in. Hg (1026 hPa)
Pressure tendency: 0.04 inches (1.5 hPa) higher than three hours ago
ob: KMTC 070856Z AUTO 35006KT 10SM CLR M08/M09 A3032 RMK AO2 SLP280 T10821092 52015
cycle: 9

Station Type Date Time Source
KMTC TAF 2021/03/07 09:15 UTC NOAA

TAF TAF KMTC 070900Z 0709/0815 35006KT 9999 SKC QNH3029INS
BECMG 0714/0715 35006KT 9999 FEW025 SCT250 QNH3035INS
BECMG 0811/0812 29015KT 9999 SCT025 BKN080 520303 QNH3031INS TX01/0722Z TNM09/0709Z LAST NO
AMDS AFT 0709 NEXT 0712

Example: see airport list